Time;durP1;ratioP1;P1;durP2;ratioP2;P2;SDS_P1;SDS_P2;PMS_P1;PMS_P2;Temp;Humidity;BMP_temperature;BMP_pressure;BME280_temperature;BME280_humidity;BME280_pressure;Samples;Min_cycle;Max_cycle;Signal;HPM_P1;HPM_P2
2023/06/29 00:02:25;;;;;;;9.17;5.03;;;;;;;21.62;60.40;99937.91;4993412;28;20721;-80
2023/06/29 00:04:52;;;;;;;13.50;4.65;;;;;;;21.63;60.34;99944.28;4992855;28;20597;-80
2023/06/29 00:07:17;;;;;;;11.43;4.93;;;;;;;21.55;60.24;99940.41;4993542;28;20034;-80
2023/06/29 00:09:43;;;;;;;11.73;4.30;;;;;;;21.42;60.19;99945.03;4987641;28;20161;-80
2023/06/29 00:12:08;;;;;;;11.82;5.28;;;;;;;21.44;60.26;99935.25;4993527;28;20121;-80
2023/06/29 00:14:33;;;;;;;8.65;4.55;;;;;;;21.49;59.80;99939.78;4993191;28;21333;-80
2023/06/29 00:16:59;;;;;;;12.13;6.00;;;;;;;21.45;59.76;99936.06;4993791;28;20034;-80
2023/06/29 00:19:24;;;;;;;13.03;4.73;;;;;;;21.42;59.86;99931.16;4993106;28;20327;-80
2023/06/29 00:21:49;;;;;;;10.48;4.97;;;;;;;21.39;59.99;99927.13;4992545;28;20031;-80
2023/06/29 00:24:15;;;;;;;12.98;5.57;;;;;;;21.46;59.83;99934.91;4993453;28;20022;-80
2023/06/29 00:26:41;;;;;;;10.85;4.50;;;;;;;21.53;59.48;99934.38;4993659;28;20476;-80
2023/06/29 00:29:06;;;;;;;12.10;4.88;;;;;;;21.54;59.46;99922.16;4987973;28;20037;-80
2023/06/29 00:31:31;;;;;;;10.68;6.18;;;;;;;21.50;59.39;99930.31;4992926;28;21290;-79
2023/06/29 00:33:57;;;;;;;14.38;6.50;;;;;;;21.46;59.35;99926.59;4992996;28;20026;-79
2023/06/29 00:36:22;;;;;;;9.97;5.20;;;;;;;21.43;59.46;99924.50;4992850;28;20042;-80
2023/06/29 00:38:48;;;;;;;8.77;5.05;;;;;;;21.43;59.41;99921.72;4996531;28;20797;-79
2023/06/29 00:41:13;;;;;;;13.30;5.35;;;;;;;21.41;59.44;99921.25;4996804;28;20108;-79
2023/06/29 00:43:38;;;;;;;12.45;5.82;;;;;;;21.31;59.58;99920.50;4997824;28;20126;-80
2023/06/29 00:46:07;;;;;;;9.20;5.07;;;;;;;21.32;59.75;99913.78;4995730;28;20053;-75
2023/06/29 00:48:35;;;;;;;10.68;5.57;;;;;;;21.36;59.56;99913.91;4994705;28;20260;-76
2023/06/29 00:51:02;;;;;;;9.63;5.63;;;;;;;21.25;59.58;99912.69;4994407;28;20027;-76
2023/06/29 00:53:28;;;;;;;14.23;5.82;;;;;;;21.29;59.66;99914.47;4997660;28;20631;-76
2023/06/29 00:55:53;;;;;;;10.13;5.32;;;;;;;21.29;59.40;99913.66;4994858;28;20088;-76
2023/06/29 00:58:18;;;;;;;15.63;6.20;;;;;;;21.17;59.90;99912.41;4994122;28;20053;-75
2023/06/29 01:00:43;;;;;;;11.47;6.00;;;;;;;21.22;59.52;99912.22;4994673;28;20022;-82
2023/06/29 01:03:09;;;;;;;14.97;5.70;;;;;;;21.24;60.01;99906.31;4998927;28;20026;-81
2023/06/29 01:05:34;;;;;;;13.77;5.88;;;;;;;21.25;59.63;99907.97;4996463;28;20033;-82
2023/06/29 01:08:09;;;;;;;10.97;5.90;;;;;;;21.19;59.22;99898.22;4996705;28;20045;-81
2023/06/29 01:10:35;;;;;;;13.25;5.80;;;;;;;21.15;60.05;99897.25;4997001;28;20249;-81
2023/06/29 01:13:03;;;;;;;10.00;4.70;;;;;;;21.19;59.79;99893.47;4996923;28;20153;-80
2023/06/29 01:15:29;;;;;;;10.20;4.90;;;;;;;21.26;59.45;99895.72;4996663;28;20849;-80
2023/06/29 01:17:58;;;;;;;15.60;6.28;;;;;;;21.39;59.03;99891.09;4996639;28;20064;-80
2023/06/29 01:20:25;;;;;;;16.20;5.60;;;;;;;21.43;59.31;99885.66;4996585;28;20034;-81
2023/06/29 01:23:18;;;;;;;12.60;6.22;;;;;;;21.44;58.87;99893.66;4996219;28;20773;-80
2023/06/29 01:25:44;;;;;;;17.02;5.45;;;;;;;21.44;58.99;99893.66;4990946;28;20022;-80
2023/06/29 01:28:10;;;;;;;14.93;6.47;;;;;;;21.58;59.24;99893.41;4996074;28;20027;-81
2023/06/29 01:30:39;;;;;;;9.80;5.38;;;;;;;21.63;58.99;99891.56;4996394;28;20030;-80
2023/06/29 01:33:06;;;;;;;13.60;5.78;;;;;;;21.60;59.45;99883.94;4996198;28;20062;-80
2023/06/29 01:35:31;;;;;;;13.23;6.07;;;;;;;21.60;58.75;99879.19;4996299;28;20092;-81
2023/06/29 01:38:02;;;;;;;11.50;5.75;;;;;;;21.67;59.25;99889.75;4996241;28;20472;-81
2023/06/29 01:40:31;;;;;;;11.02;5.65;;;;;;;21.65;59.55;99890.09;4999556;28;20036;-80
2023/06/29 01:42:56;;;;;;;10.00;4.95;;;;;;;21.66;59.31;99885.38;5000373;28;20699;-79
2023/06/29 01:45:22;;;;;;;8.38;4.55;;;;;;;21.56;59.73;99884.59;4996167;28;20040;-80
2023/06/29 01:47:47;;;;;;;9.60;5.15;;;;;;;21.56;59.88;99879.06;4995795;28;20076;-81
2023/06/29 01:50:14;;;;;;;11.33;5.53;;;;;;;21.55;59.81;99874.66;4994924;28;20094;-80
2023/06/29 01:52:40;;;;;;;8.93;4.85;;;;;;;21.45;59.58;99878.66;4990187;28;20372;-81
2023/06/29 01:55:09;;;;;;;8.50;4.45;;;;;;;21.34;59.38;99880.16;4994239;28;20034;-80
2023/06/29 01:57:34;;;;;;;10.27;4.82;;;;;;;21.32;59.30;99880.50;5003009;28;20073;-80
2023/06/29 01:59:59;;;;;;;11.10;5.25;;;;;;;21.29;59.71;99878.44;4995466;28;20037;-80
2023/06/29 02:02:25;;;;;;;8.77;5.15;;;;;;;21.27;59.66;99877.94;4995796;28;20029;-80
2023/06/29 02:04:50;;;;;;;18.85;5.65;;;;;;;21.29;59.56;99874.84;4995452;28;20492;-80
2023/06/29 02:07:15;;;;;;;13.07;5.20;;;;;;;21.32;59.53;99869.44;4993732;28;20472;-76
2023/06/29 02:09:41;;;;;;;11.38;5.32;;;;;;;21.27;59.73;99866.88;4992778;28;20038;-77
2023/06/29 02:12:07;;;;;;;12.65;6.05;;;;;;;21.29;59.75;99870.09;4992647;28;20022;-77
2023/06/29 02:14:33;;;;;;;12.73;5.05;;;;;;;21.30;59.47;99868.13;4992768;28;20088;-76
2023/06/29 02:16:58;;;;;;;10.53;6.40;;;;;;;21.40;59.42;99864.19;4993147;28;20038;-76
2023/06/29 02:19:23;;;;;;;10.87;4.93;;;;;;;21.42;59.10;99864.63;4992661;28;20772;-76
2023/06/29 02:21:48;;;;;;;8.20;5.17;;;;;;;21.45;58.89;99853.69;4992546;28;20267;-76
2023/06/29 02:24:14;;;;;;;16.03;7.47;;;;;;;21.40;59.18;99858.63;4992460;28;20026;-76
2023/06/29 02:26:39;;;;;;;10.60;5.63;;;;;;;21.38;59.39;99850.63;4992476;28;20104;-75
2023/06/29 02:29:04;;;;;;;11.67;5.60;;;;;;;21.33;59.11;99848.06;4991942;28;20038;-76
2023/06/29 02:31:29;;;;;;;9.63;4.70;;;;;;;21.44;58.87;99843.75;4992481;28;20860;-75
2023/06/29 02:33:55;;;;;;;10.00;5.40;;;;;;;21.32;58.57;99849.19;4992851;28;20039;-75
2023/06/29 02:36:21;;;;;;;14.20;5.75;;;;;;;21.32;59.08;99846.44;4991834;28;20949;-77
2023/06/29 02:38:47;;;;;;;9.52;4.55;;;;;;;21.30;59.10;99852.31;4988662;28;20431;-75
2023/06/29 02:41:13;;;;;;;14.90;6.32;;;;;;;21.15;59.49;99852.91;4992254;28;20030;-76
2023/06/29 02:43:38;;;;;;;10.68;5.07;;;;;;;21.25;59.70;99846.97;4992566;28;20042;-75
2023/06/29 02:46:03;;;;;;;12.80;5.40;;;;;;;21.37;59.28;99850.97;4994887;28;20537;-76
2023/06/29 02:48:29;;;;;;;11.37;4.40;;;;;;;21.43;59.27;99847.69;4993250;28;20030;-76
2023/06/29 02:50:54;;;;;;;17.53;5.30;;;;;;;21.52;59.50;99841.25;4991971;28;20034;-75
2023/06/29 02:53:19;;;;;;;9.35;5.38;;;;;;;21.41;59.16;99849.16;4991916;28;20831;-75
2023/06/29 02:55:44;;;;;;;11.67;5.20;;;;;;;21.32;59.45;99847.25;4992084;28;20031;-75
2023/06/29 02:58:10;;;;;;;11.18;4.78;;;;;;;21.32;58.96;99840.88;4991705;28;20383;-75
2023/06/29 03:00:35;;;;;;;9.43;5.40;;;;;;;21.29;59.15;99847.94;4993738;28;20554;-76
2023/06/29 03:03:00;;;;;;;9.02;4.32;;;;;;;21.37;59.29;99848.19;4991856;28;20311;-75
2023/06/29 03:05:26;;;;;;;21.48;6.65;;;;;;;21.41;59.11;99846.38;4991590;28;20026;-76
2023/06/29 03:07:51;;;;;;;10.17;5.10;;;;;;;21.34;59.16;99849.69;4990206;28;20575;-75
2023/06/29 03:10:16;;;;;;;13.43;5.22;;;;;;;21.48;59.41;99843.88;4991761;28;20034;-76
2023/06/29 03:12:42;;;;;;;14.37;5.10;;;;;;;21.51;59.81;99845.97;4991668;28;20472;-76
2023/06/29 03:15:07;;;;;;;12.23;5.53;;;;;;;21.53;59.93;99845.63;4991648;28;20347;-75
2023/06/29 03:17:33;;;;;;;9.00;5.10;;;;;;;21.52;60.30;99844.81;4992263;28;20041;-76
2023/06/29 03:19:58;;;;;;;8.32;3.85;;;;;;;21.52;60.63;99839.28;4991127;28;20526;-75
2023/06/29 03:22:26;;;;;;;11.70;4.90;;;;;;;21.48;61.23;99838.31;4991389;28;20022;-77
2023/06/29 03:24:51;;;;;;;11.13;4.78;;;;;;;21.37;61.11;99837.09;4991676;28;20030;-75
2023/06/29 03:27:16;;;;;;;13.40;5.93;;;;;;;21.27;60.33;99838.31;4994110;28;20026;-80
2023/06/29 03:29:41;;;;;;;13.73;5.00;;;;;;;21.33;60.06;99837.78;4993645;28;20263;-80
2023/06/29 03:32:07;;;;;;;15.17;6.00;;;;;;;21.26;59.90;99836.69;4993923;28;20522;-80
2023/06/29 03:34:32;;;;;;;11.80;6.07;;;;;;;21.26;59.90;99843.03;4993762;28;20031;-80
2023/06/29 03:36:57;;;;;;;19.30;5.93;;;;;;;21.15;59.87;99841.81;4991579;28;20034;-75
2023/06/29 03:39:23;;;;;;;10.47;5.33;;;;;;;21.29;59.88;99841.56;4993172;28;20304;-75
2023/06/29 03:41:48;;;;;;;10.90;6.03;;;;;;;21.36;59.44;99835.50;4990893;28;20559;-76
2023/06/29 03:44:13;;;;;;;10.27;5.70;;;;;;;21.43;59.64;99841.31;4991597;28;20077;-75
2023/06/29 03:46:39;;;;;;;7.93;4.60;;;;;;;21.46;59.56;99840.63;4991159;28;20619;-76
2023/06/29 03:49:04;;;;;;;10.20;5.03;;;;;;;21.50;59.91;99841.56;4993035;28;20050;-76
2023/06/29 03:51:29;;;;;;;9.02;4.25;;;;;;;21.37;59.38;99837.09;4991051;28;20969;-76
2023/06/29 03:53:54;;;;;;;10.43;5.03;;;;;;;21.36;59.45;99835.50;4991555;28;20022;-76
2023/06/29 03:56:20;;;;;;;10.97;4.87;;;;;;;21.44;59.59;99826.28;4991400;28;20672;-75
2023/06/29 03:58:45;;;;;;;8.47;5.13;;;;;;;21.50;60.23;99830.47;4990636;28;20029;-76
2023/06/29 04:01:10;;;;;;;8.13;3.97;;;;;;;21.54;60.19;99823.09;4990590;28;20572;-76
2023/06/29 04:03:35;;;;;;;19.53;5.17;;;;;;;21.53;60.56;99815.94;4990961;28;20023;-75
2023/06/29 04:06:00;;;;;;;17.03;5.33;;;;;;;21.56;59.77;99822.78;4991083;28;20077;-75
2023/06/29 04:08:26;;;;;;;13.90;4.80;;;;;;;21.62;59.40;99812.31;4990210;28;20048;-75
2023/06/29 04:10:52;;;;;;;8.77;5.03;;;;;;;21.64;59.72;99807.22;4990661;28;20019;-75
2023/06/29 04:13:17;;;;;;;13.68;5.70;;;;;;;21.61;59.41;99805.13;4990949;28;20034;-76
2023/06/29 04:15:43;;;;;;;9.77;4.90;;;;;;;21.77;59.01;99806.13;4989819;28;20033;-75
2023/06/29 04:18:08;;;;;;;10.43;5.13;;;;;;;21.50;59.39;99805.53;4989342;28;20263;-76
2023/06/29 04:20:33;;;;;;;11.23;5.43;;;;;;;21.54;59.39;99803.69;4990643;28;20420;-76
2023/06/29 04:22:58;;;;;;;12.20;4.45;;;;;;;21.61;59.41;99802.34;4991694;28;20252;-75
2023/06/29 04:25:24;;;;;;;10.03;5.77;;;;;;;21.65;59.12;99803.28;4991198;28;20057;-75
2023/06/29 04:27:49;;;;;;;12.00;6.07;;;;;;;21.51;59.17;99803.56;4991014;28;20058;-76
2023/06/29 04:30:17;;;;;;;12.93;6.05;;;;;;;21.44;59.64;99804.09;4990595;28;20113;-75
2023/06/29 04:32:43;;;;;;;11.80;5.65;;;;;;;21.48;59.55;99802.28;4990754;28;20054;-76
2023/06/29 04:35:09;;;;;;;14.68;5.63;;;;;;;21.48;59.69;99801.47;4991261;28;20058;-80
2023/06/29 04:37:41;;;;;;;10.18;5.30;;;;;;;21.46;59.72;99807.34;4991081;28;20034;-75
2023/06/29 04:40:14;;;;;;;11.18;5.18;;;;;;;21.44;60.13;99799.38;4990267;28;20431;-76
2023/06/29 04:42:46;;;;;;;10.48;5.65;;;;;;;21.44;59.96;99804.09;4990973;28;20065;-76
2023/06/29 04:45:17;;;;;;;16.65;6.40;;;;;;;21.33;60.47;99790.66;4991312;28;20125;-80
2023/06/29 04:47:44;;;;;;;14.55;5.40;;;;;;;21.32;60.43;99797.34;4993120;28;20026;-79
2023/06/29 04:50:10;;;;;;;11.38;5.82;;;;;;;21.33;60.43;99793.44;4992530;28;20080;-80
2023/06/29 04:52:36;;;;;;;12.63;5.57;;;;;;;21.42;60.58;99795.31;4992426;28;20042;-80
2023/06/29 04:55:07;;;;;;;15.13;5.57;;;;;;;21.50;60.65;99790.88;4993032;28;20106;-80
2023/06/29 04:57:32;;;;;;;14.82;6.55;;;;;;;21.64;60.81;99796.13;4992652;28;20480;-80
2023/06/29 04:59:57;;;;;;;10.87;5.13;;;;;;;21.64;60.73;99799.69;4992150;28;20036;-80
2023/06/29 05:02:22;;;;;;;14.82;6.55;;;;;;;21.63;60.96;99800.03;4992953;28;20765;-80
2023/06/29 05:04:49;;;;;;;9.33;4.73;;;;;;;21.52;60.76;99789.34;4993112;28;20041;-80
2023/06/29 05:07:14;;;;;;;11.32;5.85;;;;;;;21.43;60.67;99791.41;4992885;28;20256;-80
2023/06/29 05:09:39;;;;;;;14.07;4.43;;;;;;;21.40;60.83;99794.88;4992506;28;20048;-80
2023/06/29 05:12:05;;;;;;;17.50;5.07;;;;;;;21.45;60.80;99786.31;4992701;28;20113;-80
2023/06/29 05:14:30;;;;;;;12.73;6.68;;;;;;;21.46;60.80;99785.16;4993245;28;20027;-80
2023/06/29 05:16:57;;;;;;;13.77;5.97;;;;;;;21.44;60.71;99776.38;4993360;28;20088;-80
2023/06/29 05:19:22;;;;;;;11.77;5.65;;;;;;;21.45;60.65;99784.38;4992537;28;20487;-79
2023/06/29 05:21:48;;;;;;;8.43;3.80;;;;;;;21.38;60.94;99777.75;4992824;28;20069;-80
2023/06/29 05:24:13;;;;;;;11.13;4.80;;;;;;;21.32;61.15;99775.16;4994136;28;20050;-79
2023/06/29 05:26:38;;;;;;;9.70;3.92;;;;;;;21.37;61.25;99782.47;4996113;28;20061;-80
2023/06/29 05:29:03;;;;;;;10.50;5.25;;;;;;;21.60;61.38;99778.53;4996021;28;20042;-80
2023/06/29 05:31:29;;;;;;;10.07;4.67;;;;;;;21.55;61.08;99774.00;4994294;28;20042;-80
2023/06/29 05:33:54;;;;;;;10.00;4.70;;;;;;;21.63;61.03;99767.59;4995874;28;20252;-80
2023/06/29 05:36:20;;;;;;;9.67;3.73;;;;;;;21.55;60.88;99769.28;4994172;28;20038;-79
2023/06/29 05:38:45;;;;;;;8.73;3.88;;;;;;;21.43;61.26;99767.25;4995685;28;20040;-80
2023/06/29 05:41:10;;;;;;;13.50;5.18;;;;;;;21.40;61.58;99765.16;4996242;28;20415;-81
2023/06/29 05:43:35;;;;;;;9.93;3.95;;;;;;;21.46;61.78;99769.34;4995916;28;21258;-80
2023/06/29 05:46:01;;;;;;;7.43;4.47;;;;;;;21.50;61.53;99763.94;4991130;28;20041;-75
2023/06/29 05:48:26;;;;;;;15.57;4.60;;;;;;;21.44;61.49;99766.09;4993380;28;20403;-76
2023/06/29 05:50:51;;;;;;;9.65;5.00;;;;;;;21.54;61.54;99762.09;4997740;28;20042;-76
2023/06/29 05:53:16;;;;;;;9.03;4.50;;;;;;;21.57;61.44;99766.97;4992967;28;20034;-76
2023/06/29 05:55:42;;;;;;;14.53;4.43;;;;;;;21.71;61.48;99760.31;4992852;28;20303;-80
2023/06/29 05:58:07;;;;;;;8.73;4.20;;;;;;;21.78;61.29;99771.66;4995784;28;20053;-81
2023/06/29 06:00:32;;;;;;;13.47;4.53;;;;;;;21.77;61.56;99763.69;4995661;28;20034;-81
2023/06/29 06:02:57;;;;;;;9.30;3.77;;;;;;;21.79;61.36;99761.38;4995541;28;20026;-81
2023/06/29 06:05:23;;;;;;;7.90;3.90;;;;;;;21.69;61.96;99759.84;5004968;28;20279;-81
2023/06/29 06:07:48;;;;;;;9.60;4.10;;;;;;;21.78;61.69;99763.34;4995182;28;20026;-81
2023/06/29 06:10:13;;;;;;;13.27;4.18;;;;;;;21.73;61.99;99763.56;4995507;28;20030;-79
2023/06/29 06:12:39;;;;;;;10.25;4.20;;;;;;;21.67;62.11;99767.69;4994519;28;20027;-80
2023/06/29 06:15:06;;;;;;;12.50;4.27;;;;;;;21.64;62.15;99768.41;4995168;28;20022;-81
2023/06/29 06:17:31;;;;;;;13.35;4.68;;;;;;;21.67;62.28;99767.69;4995026;28;20249;-81
2023/06/29 06:19:56;;;;;;;11.10;4.20;;;;;;;21.57;62.37;99766.97;4994585;28;20494;-80
2023/06/29 06:22:22;;;;;;;11.38;3.78;;;;;;;21.53;62.69;99768.81;4991294;28;20272;-81
2023/06/29 06:24:47;;;;;;;9.80;5.00;;;;;;;21.55;62.56;99774.00;4990625;28;20410;-81
2023/06/29 06:27:12;;;;;;;10.77;4.83;;;;;;;21.68;62.75;99770.13;4991486;28;20093;-80
2023/06/29 06:29:38;;;;;;;8.45;2.92;;;;;;;21.90;62.07;99772.91;4995896;28;20256;-80
2023/06/29 06:32:04;;;;;;;8.73;3.88;;;;;;;21.91;62.06;99777.28;4992275;28;20492;-81
2023/06/29 06:34:30;;;;;;;13.07;4.10;;;;;;;22.04;61.62;99773.41;4993760;28;20026;-80
2023/06/29 06:36:57;;;;;;;12.35;4.63;;;;;;;21.99;61.58;99768.06;4993354;28;21098;-78
2023/06/29 06:39:22;;;;;;;7.55;3.53;;;;;;;21.95;61.46;99772.69;4990121;28;20602;-77
2023/06/29 06:41:47;;;;;;;9.50;3.78;;;;;;;21.93;61.75;99764.72;4991719;28;20117;-78
2023/06/29 06:44:13;;;;;;;10.10;3.77;;;;;;;21.97;61.76;99775.94;4991099;28;20035;-77
2023/06/29 06:46:38;;;;;;;13.80;4.22;;;;;;;21.96;61.83;99774.31;4989978;28;20284;-78
2023/06/29 06:49:03;;;;;;;11.65;4.05;;;;;;;22.03;61.66;99777.34;4990479;28;20037;-77
2023/06/29 06:51:28;;;;;;;8.43;3.20;;;;;;;22.10;61.74;99779.56;4990238;28;20045;-77
2023/06/29 06:53:54;;;;;;;6.47;3.47;;;;;;;22.10;61.27;99779.56;4992421;28;20657;-76
2023/06/29 06:56:20;;;;;;;7.10;3.22;;;;;;;22.15;61.21;99772.97;4989905;28;20034;-77
2023/06/29 06:58:45;;;;;;;10.88;4.93;;;;;;;22.24;61.15;99779.22;4989015;28;20026;-78
2023/06/29 07:01:11;;;;;;;7.40;3.65;;;;;;;22.31;61.05;99772.31;4989826;28;20122;-78
2023/06/29 07:03:36;;;;;;;10.35;5.22;;;;;;;22.30;61.01;99777.03;4988869;28;20126;-78
2023/06/29 07:06:01;;;;;;;10.97;4.47;;;;;;;22.25;61.22;99769.75;4984612;28;20050;-77
2023/06/29 07:08:27;;;;;;;14.07;3.92;;;;;;;22.28;61.33;99777.41;4984111;28;20583;-77
2023/06/29 07:10:53;;;;;;;9.27;3.40;;;;;;;22.36;61.17;99772.06;4983828;28;20499;-77
2023/06/29 07:13:18;;;;;;;13.15;3.88;;;;;;;22.36;61.43;99775.66;4990723;28;20041;-78
2023/06/29 07:15:46;;;;;;;10.23;3.75;;;;;;;22.49;61.14;99776.50;4991349;28;20057;-76
2023/06/29 07:18:11;;;;;;;9.95;4.60;;;;;;;22.38;61.20;99775.31;4990372;28;20096;-78
2023/06/29 07:20:36;;;;;;;13.90;3.67;;;;;;;22.53;61.21;99779.38;4989858;28;21049;-77
2023/06/29 07:23:01;;;;;;;12.03;3.77;;;;;;;22.62;61.24;99770.94;4985315;28;20375;-76
2023/06/29 07:25:27;;;;;;;10.97;4.63;;;;;;;22.59;61.36;99768.84;4985624;28;20684;-80
2023/06/29 07:27:52;;;;;;;18.83;5.30;;;;;;;22.74;60.42;99768.19;4984660;28;20030;-78
2023/06/29 07:30:17;;;;;;;9.63;5.00;;;;;;;22.72;60.44;99770.50;4984464;28;20439;-76
2023/06/29 07:32:43;;;;;;;9.20;4.67;;;;;;;22.76;60.62;99755.94;4984754;28;20034;-76
2023/06/29 07:35:08;;;;;;;9.60;4.88;;;;;;;22.82;60.38;99766.44;4982945;28;20840;-76
2023/06/29 07:37:34;;;;;;;10.48;4.40;;;;;;;22.88;60.72;99764.25;4984143;28;20038;-76
2023/06/29 07:40:00;;;;;;;9.90;4.35;;;;;;;23.06;60.34;99758.44;4983089;28;20042;-75
2023/06/29 07:42:25;;;;;;;9.40;4.32;;;;;;;23.20;60.00;99760.84;4987772;28;20046;-77
2023/06/29 07:44:51;;;;;;;10.27;4.63;;;;;;;23.18;60.57;99766.75;4992344;28;20030;-76
2023/06/29 07:47:16;;;;;;;9.93;3.73;;;;;;;23.04;60.84;99763.53;4991888;28;20614;-76
2023/06/29 07:49:41;;;;;;;6.87;3.70;;;;;;;22.92;61.38;99772.69;4986895;28;20046;-77
2023/06/29 07:52:07;;;;;;;7.80;3.97;;;;;;;22.86;60.81;99767.34;4983352;28;20191;-76
2023/06/29 07:54:32;;;;;;;10.18;4.05;;;;;;;22.95;60.88;99766.44;4983119;28;20642;-77
2023/06/29 07:56:57;;;;;;;6.57;3.80;;;;;;;23.02;60.86;99766.66;4983221;28;20808;-76
2023/06/29 07:59:22;;;;;;;11.50;3.60;;;;;;;23.04;60.87;99764.34;4981918;28;20551;-76
2023/06/29 08:01:48;;;;;;;8.10;4.53;;;;;;;23.01;61.17;99761.44;4983476;28;20718;-76
2023/06/29 08:04:14;;;;;;;7.53;3.53;;;;;;;22.95;60.89;99766.44;4983507;28;20689;-77
2023/06/29 08:06:43;;;;;;;7.97;3.47;;;;;;;22.99;61.11;99772.91;4983327;28;20038;-77
2023/06/29 08:09:09;;;;;;;8.43;4.32;;;;;;;23.02;61.42;99765.84;4982947;28;20494;-77
2023/06/29 08:11:34;;;;;;;8.95;3.78;;;;;;;23.06;61.49;99766.78;4983638;28;20121;-78
2023/06/29 08:13:59;;;;;;;7.53;3.27;;;;;;;23.04;61.50;99763.53;4983123;28;20049;-78
2023/06/29 08:16:24;;;;;;;9.95;4.35;;;;;;;22.96;61.98;99757.72;4983556;28;20043;-78
2023/06/29 08:18:50;;;;;;;8.70;3.70;;;;;;;22.88;61.58;99758.69;4982900;28;20034;-77
2023/06/29 08:21:15;;;;;;;7.77;3.90;;;;;;;22.97;61.53;99761.34;4983808;28;20029;-78
2023/06/29 08:23:40;;;;;;;10.38;4.18;;;;;;;23.05;61.47;99762.34;4983207;28;20034;-77
2023/06/29 08:26:06;;;;;;;10.35;3.75;;;;;;;23.08;61.19;99756.09;4983376;28;20527;-77
2023/06/29 08:28:31;;;;;;;8.83;3.67;;;;;;;23.04;60.67;99763.53;4983091;28;20045;-78
2023/06/29 08:30:56;;;;;;;9.48;3.63;;;;;;;22.96;60.30;99757.72;4983539;28;20062;-77
2023/06/29 08:33:23;;;;;;;17.93;3.47;;;;;;;22.77;60.29;99760.31;4983157;28;20045;-79
2023/06/29 08:35:51;;;;;;;13.63;3.42;;;;;;;22.91;60.25;99751.59;4983332;28;20966;-78
2023/06/29 08:38:17;;;;;;;6.22;3.20;;;;;;;22.88;59.81;99758.69;4983354;28;20450;-77
2023/06/29 08:40:45;;;;;;;7.70;3.47;;;;;;;22.94;59.61;99765.59;4983007;28;20038;-78
2023/06/29 08:43:11;;;;;;;11.60;4.53;;;;;;;22.71;59.29;99760.56;4983169;28;20208;-77
2023/06/29 08:45:37;;;;;;;8.48;3.00;;;;;;;22.95;59.45;99758.09;4983804;28;20076;-77
2023/06/29 08:48:03;;;;;;;6.77;2.90;;;;;;;23.08;59.05;99758.88;4983219;28;20467;-78
2023/06/29 08:50:30;;;;;;;8.35;3.20;;;;;;;23.14;58.73;99753.91;4983283;28;20306;-77
2023/06/29 08:52:56;;;;;;;8.30;3.05;;;;;;;23.29;58.65;99755.13;4983212;28;20081;-77
2023/06/29 08:55:22;;;;;;;7.50;3.65;;;;;;;23.32;58.03;99754.41;4983644;28;20034;-77
2023/06/29 08:57:48;;;;;;;7.53;3.30;;;;;;;23.23;57.84;99759.31;4984038;28;20522;-77
2023/06/29 09:00:14;;;;;;;11.52;3.50;;;;;;;23.27;57.99;99751.91;4984687;28;20133;-77
2023/06/29 09:02:39;;;;;;;12.77;3.97;;;;;;;23.32;58.28;99751.66;4986981;28;20062;-78
2023/06/29 09:05:05;;;;;;;4.95;2.83;;;;;;;23.42;58.47;99756.72;4986944;28;20034;-77
2023/06/29 09:07:31;;;;;;;8.02;3.67;;;;;;;23.42;58.01;99750.34;4987169;28;20039;-77
2023/06/29 09:09:57;;;;;;;7.28;3.58;;;;;;;23.42;57.96;99755.91;4986566;28;20045;-77
2023/06/29 09:12:22;;;;;;;7.03;3.28;;;;;;;23.56;57.84;99744.41;4986519;28;20062;-77
2023/06/29 09:14:48;;;;;;;8.23;3.90;;;;;;;23.73;57.62;99743.28;4986746;28;20146;-78
2023/06/29 09:17:15;;;;;;;5.80;3.60;;;;;;;23.67;57.15;99739.97;4986766;28;20541;-77
2023/06/29 09:19:50;;;;;;;9.40;3.83;;;;;;;23.59;57.32;99732.56;4985976;28;20030;-77
2023/06/29 09:22:15;;;;;;;9.68;4.38;;;;;;;23.49;57.44;99738.63;4986598;28;20057;-77
2023/06/29 09:24:41;;;;;;;14.15;4.97;;;;;;;23.57;57.59;99734.91;4986006;28;20693;-77
2023/06/29 09:27:09;;;;;;;9.82;4.30;;;;;;;23.60;56.99;99739.75;4986844;28;20034;-77
2023/06/29 09:29:36;;;;;;;6.70;3.53;;;;;;;23.65;57.08;99733.94;4986341;28;20038;-77
2023/06/29 09:32:03;;;;;;;8.00;3.78;;;;;;;23.58;57.71;99730.94;4986094;28;20038;-77
2023/06/29 09:34:28;;;;;;;7.75;3.63;;;;;;;23.69;57.71;99734.03;4986383;28;20035;-77
2023/06/29 09:36:55;;;;;;;9.43;4.40;;;;;;;23.66;57.34;99727.19;4985955;28;20049;-77
2023/06/29 09:39:21;;;;;;;7.28;4.22;;;;;;;23.72;57.45;99732.50;4985974;28;20117;-77
2023/06/29 09:41:58;;;;;;;11.82;4.78;;;;;;;23.65;57.39;99731.16;4985998;28;20117;-77
2023/06/29 09:44:25;;;;;;;16.52;6.57;;;;;;;23.87;57.38;99730.91;4986073;28;20084;-78
2023/06/29 09:46:52;;;;;;;11.50;4.80;;;;;;;24.00;57.01;99728.88;4985601;28;20084;-77
2023/06/29 09:49:19;;;;;;;7.82;3.78;;;;;;;23.98;57.22;99728.44;4985869;28;20043;-77
2023/06/29 09:51:45;;;;;;;10.82;4.57;;;;;;;24.13;57.34;99726.81;4985978;28;20085;-77
2023/06/29 09:54:13;;;;;;;9.73;4.97;;;;;;;24.23;56.82;99736.63;4984299;28;20073;-77
2023/06/29 09:56:40;;;;;;;10.18;4.43;;;;;;;24.33;56.50;99736.09;4985722;28;20042;-77
2023/06/29 09:59:09;;;;;;;13.48;4.45;;;;;;;24.32;56.99;99737.28;4985577;28;20125;-77
2023/06/29 10:01:35;;;;;;;8.73;4.30;;;;;;;24.14;57.21;99729.22;4985721;28;20064;-77
2023/06/29 10:04:02;;;;;;;18.77;6.10;;;;;;;24.09;57.74;99732.28;4985745;28;20715;-77
2023/06/29 10:06:38;;;;;;;13.40;5.32;;;;;;;24.05;57.87;99730.56;4985780;28;20038;-77
2023/06/29 10:09:04;;;;;;;10.38;4.63;;;;;;;24.19;57.65;99719.81;4984990;28;20034;-77
2023/06/29 10:11:34;;;;;;;10.48;4.47;;;;;;;24.31;56.88;99720.91;4985302;28;20046;-76
2023/06/29 10:14:02;;;;;;;11.07;5.53;;;;;;;24.25;57.13;99718.41;4985570;28;20042;-78
2023/06/29 10:16:32;;;;;;;22.60;5.43;;;;;;;24.16;56.94;99716.94;4985707;28;20039;-77
2023/06/29 10:19:02;;;;;;;12.27;5.80;;;;;;;24.13;56.97;99715.66;4984786;28;20034;-77
2023/06/29 10:21:28;;;;;;;8.98;6.00;;;;;;;24.01;57.02;99719.34;4985804;28;20058;-77
2023/06/29 10:23:55;;;;;;;10.18;6.13;;;;;;;23.99;57.22;99716.13;4985422;28;20042;-77
2023/06/29 10:26:21;;;;;;;15.13;5.88;;;;;;;23.96;57.44;99714.84;4985164;28;20038;-77
2023/06/29 10:28:46;;;;;;;13.35;6.53;;;;;;;23.87;57.59;99711.44;4984783;28;20459;-78
2023/06/29 10:31:18;;;;;;;15.38;6.82;;;;;;;23.86;57.68;99712.63;4985750;28;20045;-77
2023/06/29 10:33:47;;;;;;;11.82;5.68;;;;;;;23.80;57.93;99714.81;4985250;28;20041;-77
2023/06/29 10:36:14;;;;;;;11.45;5.50;;;;;;;23.63;58.48;99716.78;4985366;28;20042;-77
2023/06/29 10:38:40;;;;;;;9.98;5.30;;;;;;;23.73;58.21;99721.03;4984956;28;20286;-78
2023/06/29 10:41:08;;;;;;;17.15;7.07;;;;;;;23.64;58.46;99726.75;4985291;28;20527;-77
2023/06/29 10:43:53;;;;;;;12.93;7.00;;;;;;;23.71;58.81;99723.34;4985262;28;20058;-77
2023/06/29 10:46:45;;;;;;;13.60;6.63;;;;;;;23.85;58.87;99720.16;4985478;28;20221;-77
2023/06/29 10:49:24;;;;;;;18.60;6.35;;;;;;;23.94;58.58;99719.16;4984394;28;20515;-77
2023/06/29 10:51:54;;;;;;;9.70;5.47;;;;;;;23.99;58.66;99721.69;4984688;28;20054;-77
2023/06/29 10:54:23;;;;;;;10.65;5.57;;;;;;;24.03;58.91;99711.44;4984739;28;20499;-77
2023/06/29 10:57:05;;;;;;;10.48;4.57;;;;;;;24.08;58.25;99716.72;4984755;28;20026;-78
2023/06/29 10:59:33;;;;;;;13.20;6.85;;;;;;;24.06;58.76;99707.97;4984078;28;20523;-77
2023/06/29 11:01:59;;;;;;;11.02;5.72;;;;;;;23.91;58.91;99709.56;4984886;28;20048;-77
2023/06/29 11:04:24;;;;;;;11.02;5.95;;;;;;;24.09;58.74;99704.44;4984334;28;20026;-77
2023/06/29 11:06:50;;;;;;;11.15;6.53;;;;;;;24.20;58.11;99698.34;4984485;28;20042;-77
2023/06/29 11:09:15;;;;;;;13.60;6.07;;;;;;;24.28;57.97;99700.16;4984143;28;20045;-77
2023/06/29 11:11:45;;;;;;;9.43;5.00;;;;;;;24.44;57.04;99704.91;4984711;28;20043;-77
2023/06/29 11:14:12;;;;;;;11.07;4.85;;;;;;;24.49;56.80;99699.03;4984936;28;20041;-77
2023/06/29 11:16:39;;;;;;;8.95;5.53;;;;;;;24.91;56.27;99694.84;4984498;28;20038;-76
2023/06/29 11:19:04;;;;;;;11.57;6.15;;;;;;;25.02;55.71;99685.94;4984236;28;20057;-77
2023/06/29 11:21:29;;;;;;;10.13;5.95;;;;;;;25.12;55.79;99690.09;4983644;28;20504;-77
2023/06/29 11:23:55;;;;;;;9.93;5.95;;;;;;;25.17;54.17;99684.22;4984452;28;20057;-77
2023/06/29 11:26:21;;;;;;;13.88;5.70;;;;;;;25.05;54.27;99680.41;4984282;28;20078;-77